Главная страница
METAR-TAF:

METAR-TAF

Аэропорты :

Burwash, Юкон, Канада

широта: 61-22N, долгота: 139-02W, высота над уровнем моря: 807 м

Текущие метеонаблюдения

Эта сводка был подготовлена 26 минут назад, в 09:00 UTC
Ветер 14 Узел от юго-восточный, изменяющийся между восточный и юго-юго-восточный
Температура -5°C
Влажность 73%
Давление 976 hPa
Видимость: 14.5 км
ясное небо

METAR: CYDB 120900Z AUTO 14014KT 080V160 9SM CLR M05/M09 A2882 RMK SLP809

Время: 01:26 (09:26 UTC)

Прогноз

Эта сводка был подготовлена 3 часа и 48 минут назад, в 05:38 UTC
Прогноз действительный с 12-го 06 UTC до 12-го 18 UTC
Ветер 3 Узел переменных направлений
Видимость: 10 км
Рассеянная облачность на высоте 21000 фута

TAF: CYDB 120538Z 1206/1218 VRB03KT P6SM BKN210 RMK FCST BASED ON AUTO OBS. NXT FCST BY 121200Z

Метеонаблюдения и прогнозы для более 4000 аэропортов (сводки METAR и TAF).

Имеющиеся станции представлены на карте желтыми и красными точками.

Чтобы увидеть название станции, наведите на нее мышь.

Затем щелкните, чтобы увидеть метеонаблюдения и метеопрогнозы.

Управление картой: чтобы увеличить масштаб, щелкните зеленые кнопки с черным крестиком; чтобы уменьшить масштаб, щелкните зеленую кнопку с тире; для просмотра соседних карт щелкайте зеленые стрелки.


METAR-TAF: